Time;durP1;ratioP1;P1;durP2;ratioP2;P2;SDS_P1;SDS_P2;PMS_P1;PMS_P2;Temp;Humidity;BMP_temperature;BMP_pressure;BME280_temperature;BME280_humidity;BME280_pressure;Samples;Min_cycle;Max_cycle;Signal;HPM_P1;HPM_P2
2022/10/28 00:00:22;;;;;;;7.28;3.38;;;14.50;99.90;;;;;;5082946;28;20035;-80
2022/10/28 00:02:47;;;;;;;9.45;3.05;;;14.40;99.90;;;;;;5085616;28;20036;-81
2022/10/28 00:05:13;;;;;;;9.45;3.13;;;14.40;99.90;;;;;;5088894;28;20028;-81
2022/10/28 00:07:38;;;;;;;9.70;3.83;;;14.40;99.90;;;;;;5092283;28;20024;-82
2022/10/28 00:10:04;;;;;;;7.40;2.88;;;14.30;99.90;;;;;;5088776;28;20028;-84
2022/10/28 00:12:35;;;;;;;8.75;3.08;;;14.30;99.90;;;;;;5087412;28;20086;-82
2022/10/28 00:15:00;;;;;;;7.32;3.35;;;14.30;99.90;;;;;;5089974;28;20021;-82
2022/10/28 00:17:26;;;;;;;9.50;3.55;;;14.30;99.90;;;;;;5087294;28;20035;-79
2022/10/28 00:19:52;;;;;;;8.52;3.38;;;14.30;99.90;;;;;;5085086;28;20080;-80
2022/10/28 00:22:17;;;;;;;10.43;3.40;;;14.20;99.90;;;;;;5086931;28;20482;-79
2022/10/28 00:24:43;;;;;;;9.75;3.40;;;14.20;99.90;;;;;;5083724;28;20024;-77
2022/10/28 00:27:08;;;;;;;8.30;3.20;;;14.20;99.90;;;;;;5082769;28;20105;-78
2022/10/28 00:29:34;;;;;;;8.38;3.15;;;14.20;99.90;;;;;;5099413;28;20108;-80
2022/10/28 00:31:59;;;;;;;10.25;3.42;;;14.20;99.90;;;;;;5085510;28;20485;-79
2022/10/28 00:34:25;;;;;;;9.10;3.25;;;14.20;99.90;;;;;;5090926;28;20028;-79
2022/10/28 00:36:50;;;;;;;9.50;3.00;;;14.20;99.90;;;;;;5086732;28;20592;-83
2022/10/28 00:39:22;;;;;;;13.20;3.30;;;14.30;99.90;;;;;;5093254;28;20035;-80
2022/10/28 00:41:50;;;;;;;6.65;3.20;;;14.20;99.90;;;;;;5093401;28;20039;-78
2022/10/28 00:44:38;;;;;;;5.70;2.83;;;14.20;99.90;;;;;;5085431;28;20108;-82
2022/10/28 00:47:09;;;;;;;8.50;2.95;;;14.30;99.90;;;;;;5083523;28;20024;-85
2022/10/28 00:49:35;;;;;;;7.50;3.13;;;14.30;99.90;;;;;;5083899;28;20034;-80
2022/10/28 00:52:09;;;;;;;7.28;2.90;;;14.30;99.90;;;;;;5087145;28;20119;-77
2022/10/28 00:54:36;;;;;;;6.57;2.95;;;14.40;99.90;;;;;;5082370;28;20016;-81
2022/10/28 00:57:04;;;;;;;9.20;3.42;;;14.40;99.90;;;;;;5106869;28;20019;-77
2022/10/28 00:59:36;;;;;;;9.05;3.20;;;14.40;99.90;;;;;;5086930;28;20541;-76
2022/10/28 01:02:04;;;;;;;6.15;2.92;;;14.40;99.90;;;;;;5082749;28;20063;-76
2022/10/28 01:04:30;;;;;;;12.90;3.30;;;14.40;99.90;;;;;;5082490;28;20642;-76
2022/10/28 01:06:57;;;;;;;7.10;2.95;;;14.40;99.90;;;;;;5083245;28;20187;-76
2022/10/28 01:09:23;;;;;;;6.75;2.67;;;14.40;99.90;;;;;;5099570;28;20031;-76
2022/10/28 01:12:10;;;;;;;11.65;3.03;;;14.50;99.90;;;;;;5100206;28;20028;-76
2022/10/28 01:15:13;;;;;;;11.10;3.30;;;14.40;99.90;;;;;;5101302;28;20053;-76
2022/10/28 01:17:41;;;;;;;7.90;2.95;;;14.50;99.90;;;;;;5099536;28;20024;-77
2022/10/28 01:20:09;;;;;;;9.43;3.17;;;14.40;99.90;;;;;;5086346;28;20063;-80
2022/10/28 01:22:50;;;;;;;9.85;3.30;;;14.40;99.90;;;;;;5101964;28;20553;-79
2022/10/28 01:25:37;;;;;;;9.38;3.20;;;14.50;99.90;;;;;;5083877;28;20059;-80
2022/10/28 01:28:12;;;;;;;4.97;2.90;;;14.50;99.90;;;;;;5081918;28;20106;-79
2022/10/28 01:31:04;;;;;;;6.07;2.95;;;14.50;99.90;;;;;;5083619;28;20020;-80
2022/10/28 01:33:40;;;;;;;;;;;14.50;99.90;;;;;;5082560;28;20534;-82
2022/10/28 01:36:21;;;;;;;10.32;2.83;;;14.50;99.90;;;;;;5103210;28;20345;-82
2022/10/28 01:38:57;;;;;;;6.13;2.83;;;14.50;99.90;;;;;;5083622;28;20149;-80
2022/10/28 01:41:54;;;;;;;9.18;2.95;;;14.50;99.90;;;;;;5085775;28;20031;-79
2022/10/28 01:44:23;;;;;;;10.93;3.15;;;14.50;99.90;;;;;;5086624;28;20499;-79
2022/10/28 01:47:05;;;;;;;9.27;3.22;;;14.50;99.90;;;;;;5082892;28;20020;-80
2022/10/28 01:49:38;;;;;;;12.77;2.70;;;14.50;99.90;;;;;;5082478;28;20173;-79
2022/10/28 01:52:08;;;;;;;10.02;2.97;;;14.50;99.90;;;;;;5084493;28;20470;-79
2022/10/28 01:54:36;;;;;;;6.68;3.00;;;14.50;99.90;;;;;;5084729;28;20053;-77
2022/10/28 01:57:03;;;;;;;10.98;2.90;;;14.60;99.90;;;;;;5081089;28;20027;-81
2022/10/28 01:59:31;;;;;;;8.75;2.97;;;14.60;99.90;;;;;;5085570;28;20100;-81
2022/10/28 02:01:56;;;;;;;9.07;2.78;;;14.60;99.90;;;;;;5084248;28;20043;-82
2022/10/28 02:04:22;;;;;;;9.85;2.65;;;14.60;99.90;;;;;;5084523;28;20346;-80
2022/10/28 02:06:52;;;;;;;7.22;2.50;;;14.70;99.90;;;;;;5082446;28;20028;-80
2022/10/28 02:09:28;;;;;;;7.07;2.60;;;14.70;99.90;;;;;;5085277;28;20028;-82
2022/10/28 02:12:13;;;;;;;12.35;3.40;;;14.70;99.90;;;;;;5100096;28;20024;-81
2022/10/28 02:15:03;;;;;;;10.40;2.85;;;14.70;99.90;;;;;;5102306;28;20077;-79
2022/10/28 02:17:55;;;;;;;11.25;2.92;;;14.70;99.90;;;;;;5100732;28;20051;-80
2022/10/28 02:20:32;;;;;;;8.95;2.63;;;14.70;99.90;;;;;;5085392;28;20077;-80
2022/10/28 02:23:14;;;;;;;7.20;2.80;;;14.70;99.90;;;;;;5083604;28;20043;-79
2022/10/28 02:25:51;;;;;;;11.10;2.90;;;14.80;99.90;;;;;;5081099;28;20081;-79
2022/10/28 02:28:38;;;;;;;4.75;2.40;;;14.80;99.90;;;;;;5102456;28;20068;-81
2022/10/28 02:31:25;;;;;;;7.45;2.60;;;14.70;99.90;;;;;;5082919;28;20027;-80
2022/10/28 02:33:56;;;;;;;7.05;2.40;;;14.70;99.90;;;;;;5080903;28;20016;-81
2022/10/28 02:36:24;;;;;;;8.98;2.80;;;14.80;99.90;;;;;;5083655;28;20036;-79
2022/10/28 02:38:54;;;;;;;6.88;2.58;;;14.80;99.90;;;;;;5083744;28;20028;-80
2022/10/28 02:41:30;;;;;;;6.22;2.47;;;14.80;99.90;;;;;;5085371;28;20031;-81
2022/10/28 02:44:00;;;;;;;10.82;3.08;;;14.80;99.90;;;;;;5083424;28;20022;-80
2022/10/28 02:46:30;;;;;;;8.45;2.50;;;14.80;99.90;;;;;;5088805;28;20453;-79
2022/10/28 02:49:04;;;;;;;9.20;2.75;;;14.70;99.90;;;;;;5087213;28;20117;-82
2022/10/28 02:51:35;;;;;;;6.53;2.65;;;14.60;99.90;;;;;;5086459;28;20028;-82
2022/10/28 02:54:23;;;;;;;12.07;2.78;;;14.60;99.90;;;;;;5085825;28;20097;-82
2022/10/28 02:57:02;;;;;;;9.82;2.63;;;14.70;99.90;;;;;;5086432;28;20035;-91
2022/10/28 02:59:28;;;;;;;7.72;2.67;;;14.60;99.90;;;;;;5087475;28;20024;-82
2022/10/28 03:01:54;;;;;;;10.60;2.50;;;14.70;99.90;;;;;;5087067;28;20039;-84
2022/10/28 03:04:19;;;;;;;12.07;3.20;;;14.70;99.90;;;;;;5088564;28;20027;-89
2022/10/28 03:06:45;;;;;;;9.82;2.80;;;14.70;99.90;;;;;;5092012;28;20529;-83
2022/10/28 03:09:11;;;;;;;14.10;2.92;;;14.70;99.90;;;;;;5082784;28;20085;-84
2022/10/28 03:11:36;;;;;;;13.40;3.42;;;14.70;99.90;;;;;;5086958;28;20053;-80
2022/10/28 03:14:02;;;;;;;8.30;2.55;;;14.80;99.90;;;;;;5087395;28;20020;-89
2022/10/28 03:16:28;;;;;;;7.60;2.50;;;14.70;99.90;;;;;;5105029;28;20035;-79
2022/10/28 03:18:54;;;;;;;5.25;3.33;;;14.70;99.90;;;;;;5091481;28;20020;-82
2022/10/28 03:21:19;;;;;;;6.88;2.70;;;14.70;99.90;;;;;;5090535;28;20028;-81
2022/10/28 03:23:45;;;;;;;11.73;2.75;;;14.70;99.90;;;;;;5087109;28;20031;-84
2022/10/28 03:26:11;;;;;;;7.55;2.70;;;14.70;99.90;;;;;;5085256;28;20020;-80
2022/10/28 03:28:36;;;;;;;8.50;2.65;;;14.70;99.90;;;;;;5105938;28;20052;-82
2022/10/28 03:31:02;;;;;;;7.72;2.40;;;14.80;99.90;;;;;;5086215;28;20023;-88
2022/10/28 03:33:28;;;;;;;169.02;84.68;;;14.80;99.90;;;;;;5085595;28;20027;-78
2022/10/28 03:35:53;;;;;;;144.75;73.97;;;14.90;99.90;;;;;;5083974;28;20169;-83
2022/10/28 03:38:19;;;;;;;28.55;15.07;;;14.90;99.90;;;;;;5087544;28;20024;-77
2022/10/28 03:40:47;;;;;;;22.00;9.13;;;15.00;99.90;;;;;;5102201;28;20027;-81
2022/10/28 03:43:13;;;;;;;12.35;5.13;;;15.00;99.90;;;;;;5081493;28;20036;-77
2022/10/28 03:45:39;;;;;;;8.63;3.17;;;14.90;99.90;;;;;;5086102;28;20387;-78
2022/10/28 03:48:04;;;;;;;8.18;3.30;;;15.00;99.90;;;;;;5087602;28;20044;-79
2022/10/28 03:50:30;;;;;;;9.52;2.60;;;15.00;99.90;;;;;;5085039;28;20053;-78
2022/10/28 03:52:55;;;;;;;8.07;2.85;;;15.00;99.90;;;;;;5083724;28;20035;-78
2022/10/28 03:55:22;;;;;;;10.15;2.20;;;15.00;99.90;;;;;;5084806;28;20114;-79
2022/10/28 03:57:48;;;;;;;9.32;2.47;;;15.00;99.90;;;;;;5085023;28;20024;-78
2022/10/28 04:00:14;;;;;;;6.13;2.60;;;15.10;99.90;;;;;;5083781;28;20024;-79
2022/10/28 04:02:39;;;;;;;5.95;2.33;;;15.00;99.90;;;;;;5100615;28;20043;-80
2022/10/28 04:05:05;;;;;;;8.82;2.22;;;15.00;99.90;;;;;;5083864;28;20020;-78
2022/10/28 04:07:31;;;;;;;9.82;2.15;;;15.00;99.90;;;;;;5105577;28;20095;-77
2022/10/28 04:09:56;;;;;;;10.27;1.98;;;15.00;99.90;;;;;;5084578;28;20023;-79
2022/10/28 04:12:22;;;;;;;10.50;2.15;;;15.00;99.90;;;;;;5090607;28;20482;-78
2022/10/28 04:14:48;;;;;;;6.25;2.10;;;15.00;99.90;;;;;;5082121;28;20028;-78
2022/10/28 04:17:13;;;;;;;7.65;2.45;;;14.90;99.90;;;;;;5084526;28;20469;-79
2022/10/28 04:19:39;;;;;;;7.28;2.50;;;14.90;99.90;;;;;;5103814;28;20051;-79
2022/10/28 04:22:04;;;;;;;8.05;2.17;;;14.80;99.90;;;;;;5082968;28;20039;-79
2022/10/28 04:24:30;;;;;;;7.82;2.50;;;14.80;99.90;;;;;;5092495;28;20024;-79
2022/10/28 04:26:55;;;;;;;6.30;2.47;;;14.80;99.90;;;;;;5086269;28;20039;-78
2022/10/28 04:29:21;;;;;;;9.68;2.63;;;14.70;99.90;;;;;;5091585;28;20043;-79
2022/10/28 04:31:47;;;;;;;8.43;2.28;;;14.70;99.90;;;;;;5090012;28;20080;-77
2022/10/28 04:34:12;;;;;;;10.93;2.15;;;14.70;99.90;;;;;;5092895;28;20028;-79
2022/10/28 04:36:38;;;;;;;9.32;2.10;;;14.70;99.90;;;;;;5092809;28;20032;-78
2022/10/28 04:39:03;;;;;;;7.88;2.47;;;14.70;99.90;;;;;;5093396;28;20031;-77
2022/10/28 04:41:29;;;;;;;9.80;2.42;;;14.60;99.90;;;;;;5093627;28;20451;-80
2022/10/28 04:43:55;;;;;;;9.05;2.30;;;14.60;99.90;;;;;;5092400;28;20026;-78
2022/10/28 04:46:21;;;;;;;6.30;2.08;;;14.60;99.90;;;;;;5094063;28;20031;-78
2022/10/28 04:48:47;;;;;;;12.80;2.70;;;14.60;99.90;;;;;;5093551;28;20046;-79
2022/10/28 04:51:12;;;;;;;7.93;2.17;;;14.60;99.90;;;;;;5088796;28;20452;-79
2022/10/28 04:53:38;;;;;;;6.80;2.58;;;14.60;99.90;;;;;;5091978;28;20469;-78
2022/10/28 04:56:04;;;;;;;7.82;2.10;;;14.50;99.90;;;;;;5093788;28;20019;-77
2022/10/28 04:58:29;;;;;;;10.20;2.95;;;14.50;99.90;;;;;;5093292;28;20113;-78
2022/10/28 05:00:55;;;;;;;8.07;2.92;;;14.50;99.90;;;;;;5091505;28;20044;-77
2022/10/28 05:03:20;;;;;;;13.00;2.95;;;14.50;99.90;;;;;;5093512;28;20048;-81
2022/10/28 05:05:47;;;;;;;5.47;2.22;;;14.50;99.90;;;;;;5093791;28;20860;-80
2022/10/28 05:08:13;;;;;;;9.82;2.95;;;14.40;99.90;;;;;;5092752;28;20535;-88
2022/10/28 05:10:38;;;;;;;11.73;2.95;;;14.40;99.90;;;;;;5093422;28;20114;-80
2022/10/28 05:13:04;;;;;;;10.98;2.55;;;14.30;99.90;;;;;;5090432;28;20484;-78
2022/10/28 05:15:30;;;;;;;7.95;2.63;;;14.30;99.90;;;;;;5094719;28;20069;-78
2022/10/28 05:17:56;;;;;;;7.18;2.78;;;14.30;99.90;;;;;;5095305;28;20030;-79
2022/10/28 05:20:22;;;;;;;7.18;2.92;;;14.30;99.90;;;;;;5094896;28;20024;-79
2022/10/28 05:22:51;;;;;;;5.90;2.90;;;14.20;99.90;;;;;;5094601;28;20032;-80
2022/10/28 05:25:17;;;;;;;8.38;3.15;;;14.20;99.90;;;;;;5095193;28;20050;-79
2022/10/28 05:27:43;;;;;;;9.43;2.90;;;14.20;99.90;;;;;;5091513;28;20453;-76
2022/10/28 05:30:09;;;;;;;11.60;3.00;;;14.20;99.90;;;;;;5091294;28;20044;-77
2022/10/28 05:32:35;;;;;;;9.57;2.63;;;14.10;99.90;;;;;;5101879;28;20028;-79
2022/10/28 05:35:00;;;;;;;5.68;2.67;;;14.10;99.90;;;;;;5094271;28;20027;-86
2022/10/28 05:37:26;;;;;;;7.13;2.47;;;14.10;99.90;;;;;;5093058;28;20024;-86
2022/10/28 05:39:53;;;;;;;9.30;3.17;;;14.00;99.90;;;;;;5103577;28;20375;-84
2022/10/28 05:42:18;;;;;;;10.98;2.92;;;14.00;99.90;;;;;;5091077;28;20031;-84
2022/10/28 05:44:44;;;;;;;10.50;2.95;;;13.90;99.90;;;;;;5104689;28;20026;-85
2022/10/28 05:47:09;;;;;;;8.85;2.78;;;13.90;99.90;;;;;;5092166;28;20165;-84
2022/10/28 05:49:35;;;;;;;8.50;2.45;;;13.80;99.90;;;;;;5102240;28;20399;-82
2022/10/28 05:52:00;;;;;;;10.85;2.65;;;13.80;99.90;;;;;;5091660;28;20031;-86
2022/10/28 05:54:26;;;;;;;6.57;2.92;;;13.80;99.90;;;;;;5094313;28;20384;-86
2022/10/28 05:56:51;;;;;;;8.30;2.45;;;13.70;99.90;;;;;;5093363;28;20473;-86
2022/10/28 05:59:17;;;;;;;6.63;2.80;;;13.70;99.90;;;;;;5094649;28;20020;-83
2022/10/28 06:01:43;;;;;;;6.28;2.55;;;13.70;99.90;;;;;;5091886;28;20052;-85
2022/10/28 06:04:08;;;;;;;8.73;2.75;;;13.60;99.90;;;;;;5092814;28;20028;-86
2022/10/28 06:06:34;;;;;;;8.93;3.00;;;13.60;99.90;;;;;;5101285;28;20047;-86
2022/10/28 06:09:00;;;;;;;7.03;2.83;;;13.60;99.90;;;;;;5093301;28;20068;-86
2022/10/28 06:11:25;;;;;;;10.57;2.65;;;13.60;99.90;;;;;;5094257;28;20024;-87
2022/10/28 06:13:51;;;;;;;7.40;2.70;;;13.60;99.90;;;;;;5104679;28;20061;-87
2022/10/28 06:16:16;;;;;;;8.00;2.58;;;13.60;99.90;;;;;;5096929;28;20027;-85
2022/10/28 06:18:42;;;;;;;10.15;3.08;;;13.50;99.90;;;;;;5098464;28;20066;-82
2022/10/28 06:21:07;;;;;;;9.90;2.83;;;13.50;99.90;;;;;;5098540;28;20457;-84
2022/10/28 06:23:33;;;;;;;8.93;2.72;;;13.50;99.90;;;;;;5098334;28;20114;-84
2022/10/28 06:26:03;;;;;;;10.15;2.97;;;13.50;99.90;;;;;;5107154;28;20020;-83
2022/10/28 06:28:30;;;;;;;6.50;2.25;;;13.50;99.90;;;;;;5095540;28;20044;-84
2022/10/28 06:31:03;;;;;;;7.70;2.40;;;13.50;99.90;;;;;;5104855;28;20754;-87
2022/10/28 06:33:29;;;;;;;4.72;2.45;;;13.60;99.90;;;;;;5098168;28;20092;-86
2022/10/28 06:35:59;;;;;;;7.80;2.45;;;13.60;99.90;;;;;;5102339;28;20103;-87
2022/10/28 06:38:25;;;;;;;6.57;2.50;;;13.70;99.90;;;;;;5107427;28;20383;-86
2022/10/28 06:40:51;;;;;;;10.10;2.47;;;13.70;99.90;;;;;;5097484;28;20469;-87
2022/10/28 06:43:16;;;;;;;8.52;2.70;;;13.80;99.90;;;;;;5109058;28;20024;-87
2022/10/28 06:45:42;;;;;;;9.73;2.63;;;13.80;99.90;;;;;;5096415;28;20024;-87
2022/10/28 06:48:09;;;;;;;5.75;2.22;;;13.80;99.90;;;;;;5105742;28;20104;-86
2022/10/28 06:50:35;;;;;;;7.30;2.53;;;13.90;99.90;;;;;;5096184;28;20084;-88
2022/10/28 06:53:01;;;;;;;8.77;2.58;;;14.00;99.90;;;;;;5095540;28;20448;-87
2022/10/28 06:55:28;;;;;;;8.50;2.55;;;14.00;99.90;;;;;;5096421;28;20028;-87
2022/10/28 06:57:57;;;;;;;7.47;2.47;;;14.00;99.90;;;;;;5094867;28;20029;-87
2022/10/28 07:00:22;;;;;;;7.65;2.47;;;14.10;99.90;;;;;;5096170;28;20024;-85
2022/10/28 07:02:52;;;;;;;9.55;2.92;;;14.00;99.90;;;;;;5095556;28;20035;-87
2022/10/28 07:05:18;;;;;;;14.10;2.60;;;13.90;99.90;;;;;;5094574;28;20552;-86
2022/10/28 07:07:44;;;;;;;9.15;2.60;;;13.90;99.90;;;;;;5095163;28;20056;-85
2022/10/28 07:10:09;;;;;;;9.60;2.72;;;14.00;99.90;;;;;;5095674;28;20028;-86
2022/10/28 07:12:36;;;;;;;9.05;2.60;;;14.10;99.90;;;;;;5094663;28;20024;-87
2022/10/28 07:15:01;;;;;;;8.57;2.80;;;14.10;99.90;;;;;;5095932;28;20024;-87
2022/10/28 07:17:27;;;;;;;6.95;2.42;;;14.10;99.90;;;;;;5095613;28;20077;-84
2022/10/28 07:19:53;;;;;;;8.35;2.40;;;14.20;99.90;;;;;;5104839;28;20039;-84
2022/10/28 07:22:18;;;;;;;7.53;2.60;;;14.20;99.90;;;;;;5095225;28;20036;-84
2022/10/28 07:24:44;;;;;;;5.82;2.55;;;14.20;99.90;;;;;;5094688;28;20074;-85
2022/10/28 07:27:09;;;;;;;9.70;2.42;;;14.30;99.90;;;;;;5095180;28;20020;-86
2022/10/28 07:29:35;;;;;;;10.25;2.58;;;14.30;99.90;;;;;;5085769;28;20043;-86
2022/10/28 07:32:00;;;;;;;9.38;2.80;;;14.30;99.90;;;;;;5083038;28;20032;-85
2022/10/28 07:34:26;;;;;;;10.38;2.78;;;14.30;99.90;;;;;;5083325;28;20358;-85
2022/10/28 07:36:53;;;;;;;6.00;2.42;;;14.30;99.90;;;;;;5083257;28;20576;-84
2022/10/28 07:39:19;;;;;;;10.07;2.92;;;14.30;99.90;;;;;;5084239;28;20024;-84
2022/10/28 07:41:45;;;;;;;8.30;2.92;;;14.30;99.90;;;;;;5083736;28;20039;-87
2022/10/28 07:44:11;;;;;;;8.60;2.88;;;14.30;99.90;;;;;;5083167;28;20055;-89
2022/10/28 07:46:36;;;;;;;8.00;3.00;;;14.30;99.90;;;;;;5082887;28;20063;-87
2022/10/28 07:49:03;;;;;;;6.45;2.85;;;14.40;99.90;;;;;;5084210;28;20024;-85
2022/10/28 07:51:29;;;;;;;9.63;2.60;;;14.40;99.90;;;;;;5084406;28;20034;-87
2022/10/28 07:53:56;;;;;;;10.57;2.67;;;14.40;99.90;;;;;;5082466;28;20024;-88
2022/10/28 07:56:22;;;;;;;7.85;2.65;;;14.50;99.90;;;;;;5084741;28;20035;-89
2022/10/28 07:58:47;;;;;;;14.77;3.17;;;14.50;99.90;;;;;;5083766;28;20031;-88
2022/10/28 08:01:15;;;;;;;7.85;2.85;;;14.50;99.90;;;;;;5082456;28;20024;-89
2022/10/28 08:03:41;;;;;;;7.60;2.90;;;14.60;99.90;;;;;;5082392;28;20032;-88
2022/10/28 08:06:11;;;;;;;12.00;2.53;;;14.50;99.90;;;;;;5081853;28;20052;-84
2022/10/28 08:08:38;;;;;;;9.23;2.35;;;14.60;99.90;;;;;;5084226;28;20024;-83
2022/10/28 08:11:10;;;;;;;10.60;2.63;;;14.60;99.90;;;;;;5086428;28;20024;-88
2022/10/28 08:13:36;;;;;;;10.23;2.80;;;14.60;99.90;;;;;;5084736;28;20373;-88
2022/10/28 08:16:02;;;;;;;6.93;2.28;;;14.70;99.90;;;;;;5084343;28;20031;-87
2022/10/28 08:18:27;;;;;;;9.82;2.20;;;14.70;99.90;;;;;;5082546;28;20470;-85
2022/10/28 08:20:53;;;;;;;8.23;1.92;;;14.80;99.90;;;;;;5084563;28;20382;-86
2022/10/28 08:23:18;;;;;;;8.68;2.40;;;14.90;99.90;;;;;;5077443;28;20036;-82
2022/10/28 08:25:49;;;;;;;6.85;2.17;;;14.90;99.90;;;;;;5082950;28;20025;-89
2022/10/28 08:28:14;;;;;;;11.95;2.30;;;15.00;99.90;;;;;;5084420;28;20060;-86
2022/10/28 08:30:40;;;;;;;11.38;2.40;;;15.00;99.90;;;;;;5092487;28;20036;-84
2022/10/28 08:33:05;;;;;;;7.63;2.90;;;15.10;99.90;;;;;;5092487;28;20384;-77
2022/10/28 08:35:31;;;;;;;11.38;2.63;;;15.20;99.90;;;;;;5090518;28;20035;-78
2022/10/28 08:37:57;;;;;;;9.25;2.55;;;15.20;99.90;;;;;;5092438;28;20112;-78
2022/10/28 08:40:48;;;;;;;10.55;2.80;;;15.30;99.90;;;;;;5092067;28;20358;-77
2022/10/28 08:43:44;;;;;;;15.35;2.78;;;15.30;99.90;;;;;;5092056;28;20064;-79
2022/10/28 08:47:01;;;;;;;9.85;2.75;;;15.30;99.90;;;;;;5082164;28;20081;-79
2022/10/28 08:49:31;;;;;;;8.27;2.10;;;15.40;99.90;;;;;;5058813;28;20028;-78
2022/10/28 08:52:04;;;;;;;9.10;2.45;;;15.40;99.90;;;;;;5087382;28;20101;-77
2022/10/28 08:54:46;;;;;;;10.77;2.75;;;15.40;99.90;;;;;;5092326;28;20484;-82
2022/10/28 08:57:31;;;;;;;12.10;2.75;;;15.50;99.90;;;;;;5093039;28;20495;-88
2022/10/28 08:59:58;;;;;;;6.75;2.42;;;15.50;99.90;;;;;;5090736;28;20218;-78
2022/10/28 09:02:30;;;;;;;9.60;2.30;;;15.60;99.90;;;;;;5091432;28;20032;-83
2022/10/28 09:05:06;;;;;;;7.03;2.38;;;15.70;99.90;;;;;;5090843;28;20047;-79
2022/10/28 09:07:35;;;;;;;10.15;2.20;;;15.80;99.90;;;;;;5091499;28;20055;-83
2022/10/28 09:10:03;;;;;;;9.60;2.92;;;15.80;99.90;;;;;;5092174;28;20036;-84
2022/10/28 09:12:28;;;;;;;9.13;2.38;;;15.80;99.90;;;;;;5091457;28;20073;-82
2022/10/28 09:15:05;;;;;;;7.90;2.47;;;15.90;99.90;;;;;;5090694;28;20028;-83
2022/10/28 09:17:37;;;;;;;5.65;2.30;;;16.00;99.90;;;;;;5090251;28;20020;-82
2022/10/28 09:20:17;;;;;;;6.47;2.00;;;16.10;99.90;;;;;;5090987;28;20032;-84
2022/10/28 09:22:52;;;;;;;6.15;2.25;;;16.20;99.90;;;;;;5088956;28;20035;-85
2022/10/28 09:25:47;;;;;;;8.50;2.40;;;16.20;99.90;;;;;;5090687;28;20054;-81
2022/10/28 09:28:21;;;;;;;8.00;2.38;;;16.20;99.90;;;;;;5091080;28;20059;-86
2022/10/28 09:31:01;;;;;;;5.05;2.15;;;16.20;99.90;;;;;;5091033;28;20058;-78
2022/10/28 09:33:35;;;;;;;8.32;2.10;;;16.20;99.90;;;;;;5090322;28;20058;-78
2022/10/28 09:36:04;;;;;;;21.70;5.05;;;16.30;99.90;;;;;;5090984;28;20390;-78
2022/10/28 09:38:36;;;;;;;16.30;3.38;;;16.30;99.90;;;;;;5089153;28;20135;-82
2022/10/28 09:41:10;;;;;;;9.82;2.60;;;16.40;99.90;;;;;;5091160;28;20445;-84
2022/10/28 09:43:48;;;;;;;12.10;3.25;;;16.50;99.90;;;;;;5091364;28;20127;-80
2022/10/28 09:46:16;;;;;;;9.95;2.90;;;16.50;99.90;;;;;;5091886;28;20032;-81
2022/10/28 09:48:47;;;;;;;16.17;3.22;;;16.50;99.90;;;;;;5096252;28;20028;-80
2022/10/28 09:51:36;;;;;;;16.02;3.47;;;16.60;99.90;;;;;;5101890;28;20056;-79
2022/10/28 09:54:02;;;;;;;12.65;3.78;;;16.70;99.90;;;;;;5069263;28;20040;-81
2022/10/28 09:56:29;;;;;;;16.80;4.35;;;16.60;99.90;;;;;;5098691;28;20042;-83
2022/10/28 09:58:58;;;;;;;13.98;3.80;;;16.60;99.90;;;;;;5098126;28;20046;-81
2022/10/28 10:01:24;;;;;;;11.90;3.67;;;16.50;99.90;;;;;;5100094;28;20028;-83
2022/10/28 10:03:51;;;;;;;13.80;3.38;;;16.50;99.90;;;;;;5098497;28;20047;-80
2022/10/28 10:06:35;;;;;;;9.10;3.03;;;16.50;99.90;;;;;;5098894;28;20067;-84
2022/10/28 10:09:02;;;;;;;14.20;3.50;;;16.60;99.90;;;;;;5098599;28;20680;-81
2022/10/28 10:11:37;;;;;;;10.82;3.35;;;16.60;99.90;;;;;;5097442;28;20031;-82
2022/10/28 10:14:08;;;;;;;10.15;2.80;;;16.70;99.90;;;;;;5097035;28;20625;-83
2022/10/28 10:17:18;;;;;;;8.30;2.70;;;16.80;99.90;;;;;;5096822;28;20028;-76
2022/10/28 10:20:05;;;;;;;10.00;2.83;;;16.80;99.90;;;;;;5091938;28;20506;-79
2022/10/28 10:22:34;;;;;;;8.07;2.25;;;16.80;99.90;;;;;;5097284;28;20051;-84
2022/10/28 10:25:00;;;;;;;8.63;2.45;;;16.80;99.90;;;;;;5095381;28;20024;-77
2022/10/28 10:27:29;;;;;;;8.35;2.53;;;16.90;99.90;;;;;;5096799;28;20024;-77
2022/10/28 10:29:56;;;;;;;10.32;2.85;;;16.90;99.90;;;;;;5089741;28;20091;-80
2022/10/28 10:32:30;;;;;;;13.30;2.78;;;17.00;99.90;;;;;;5090047;28;20090;-80
2022/10/28 10:35:05;;;;;;;6.55;2.58;;;17.00;99.90;;;;;;5089307;28;20360;-80
2022/10/28 10:37:34;;;;;;;9.73;2.20;;;17.10;99.90;;;;;;5108184;28;20063;-81
2022/10/28 10:40:17;;;;;;;6.40;1.92;;;17.20;99.90;;;;;;5089956;28;20047;-80
2022/10/28 10:42:42;;;;;;;8.48;2.08;;;17.30;99.90;;;;;;5090495;28;20043;-81
2022/10/28 10:45:21;;;;;;;10.57;3.03;;;17.30;99.90;;;;;;5090360;28;20020;-81
2022/10/28 10:47:47;;;;;;;8.82;2.53;;;17.30;99.90;;;;;;5089265;28;20537;-80
2022/10/28 10:50:23;;;;;;;9.63;2.40;;;17.30;99.90;;;;;;5089769;28;20020;-80
2022/10/28 10:52:54;;;;;;;7.95;2.42;;;17.30;99.90;;;;;;5089369;28;20032;-79
2022/10/28 10:55:36;;;;;;;6.82;2.25;;;17.30;99.90;;;;;;5090236;28;20030;-81
2022/10/28 10:58:02;;;;;;;13.38;2.85;;;17.30;99.90;;;;;;5089478;28;20032;-80
2022/10/28 11:00:46;;;;;;;6.65;2.45;;;17.40;99.90;;;;;;5086779;28;20062;-81
2022/10/28 11:03:35;;;;;;;9.27;2.72;;;17.40;99.90;;;;;;5086566;28;20107;-80
2022/10/28 11:06:02;;;;;;;8.50;2.40;;;17.50;99.90;;;;;;5086550;28;20031;-81
2022/10/28 11:08:32;;;;;;;7.93;2.38;;;17.50;99.90;;;;;;5086813;28;20067;-81
2022/10/28 11:11:19;;;;;;;9.77;2.20;;;17.60;99.90;;;;;;5086549;28;20106;-79
2022/10/28 11:13:45;;;;;;;6.45;2.13;;;17.70;99.90;;;;;;5103705;28;20110;-77
2022/10/28 11:16:20;;;;;;;12.80;2.42;;;17.90;99.90;;;;;;5105861;28;20078;-82
2022/10/28 11:18:48;;;;;;;10.38;2.30;;;18.10;99.90;;;;;;5087591;28;20111;-84
2022/10/28 11:21:41;;;;;;;10.93;3.17;;;18.20;99.90;;;;;;5107583;28;20027;-85
2022/10/28 11:24:22;;;;;;;12.25;2.78;;;18.30;99.90;;;;;;5106445;28;20102;-82
2022/10/28 11:27:32;;;;;;;11.65;3.10;;;18.40;99.90;;;;;;5085481;28;20050;-81
2022/10/28 11:29:59;;;;;;;8.60;2.25;;;18.70;99.90;;;;;;5077304;28;20068;-82
2022/10/28 11:32:35;;;;;;;6.82;2.42;;;18.80;99.90;;;;;;5094515;28;20030;-81
2022/10/28 11:35:25;;;;;;;11.77;2.83;;;18.80;99.90;;;;;;5094900;28;20027;-81
2022/10/28 11:38:17;;;;;;;11.07;2.70;;;18.80;99.90;;;;;;5092453;28;20469;-82
2022/10/28 11:41:04;;;;;;;11.10;2.92;;;18.80;99.90;;;;;;5080919;28;20032;-82
2022/10/28 11:43:47;;;;;;;8.05;2.80;;;18.80;99.90;;;;;;5094191;28;20032;-82
2022/10/28 11:46:31;;;;;;;7.00;2.85;;;18.90;99.90;;;;;;5094325;28;20057;-88
2022/10/28 11:49:15;;;;;;;13.40;2.85;;;19.00;99.90;;;;;;5094325;28;20051;-88
2022/10/28 11:51:52;;;;;;;8.43;2.10;;;19.10;99.90;;;;;;5094907;28;20138;-89
2022/10/28 11:54:54;;;;;;;5.63;2.35;;;19.40;99.90;;;;;;5093459;28;20028;-82
2022/10/28 11:57:43;;;;;;;10.23;2.45;;;19.60;99.90;;;;;;5093364;28;20028;-74
2022/10/28 12:00:40;;;;;;;7.57;2.00;;;20.00;99.90;;;;;;5103682;28;20036;-74
2022/10/28 12:03:31;;;;;;;6.45;2.47;;;20.20;99.90;;;;;;5091346;28;20028;-75
2022/10/28 12:06:17;;;;;;;4.82;2.08;;;20.50;99.90;;;;;;5090629;28;20123;-75
2022/10/28 12:09:08;;;;;;;8.80;2.58;;;20.70;99.90;;;;;;5091013;28;20109;-76
2022/10/28 12:12:11;;;;;;;9.85;2.40;;;20.90;99.90;;;;;;5103046;28;20097;-76
2022/10/28 12:14:59;;;;;;;7.72;2.67;;;21.10;99.90;;;;;;5094167;28;20019;-76
2022/10/28 12:17:39;;;;;;;6.28;2.20;;;21.30;99.90;;;;;;5095316;28;20046;-76
2022/10/28 12:20:22;;;;;;;10.35;2.28;;;21.50;99.90;;;;;;5087539;28;20020;-76
2022/10/28 12:22:57;;;;;;;10.35;2.63;;;21.70;99.90;;;;;;5093019;28;20032;-74
2022/10/28 12:25:29;;;;;;;10.55;2.33;;;21.80;99.90;;;;;;5091443;28;20036;-76
2022/10/28 12:28:00;;;;;;;11.65;2.38;;;22.10;99.90;;;;;;5108466;28;20027;-74
2022/10/28 12:30:29;;;;;;;8.55;2.30;;;22.50;99.90;;;;;;5086847;28;20028;-75
2022/10/28 12:33:09;;;;;;;10.68;3.00;;;22.90;99.90;;;;;;5085268;28;20167;-75
2022/10/28 12:35:39;;;;;;;8.57;2.13;;;23.40;99.90;;;;;;5103301;28;20375;-75
2022/10/28 12:38:18;;;;;;;5.82;2.00;;;23.90;99.90;;;;;;5101553;28;20043;-76
2022/10/28 12:40:51;;;;;;;10.38;2.55;;;24.50;99.90;;;;;;5106461;28;20062;-76
2022/10/28 12:43:33;;;;;;;5.18;2.35;;;25.00;99.90;;;;;;5098158;28;20060;-76
2022/10/28 12:45:59;;;;;;;5.25;1.80;;;25.40;98.50;;;;;;5078431;28;20050;-76
2022/10/28 12:48:34;;;;;;;6.82;2.10;;;25.70;98.60;;;;;;5087570;28;20354;-76
2022/10/28 12:51:24;;;;;;;7.80;2.15;;;26.00;96.60;;;;;;5087174;28;20031;-76
2022/10/28 12:54:16;;;;;;;9.93;1.75;;;26.10;95.50;;;;;;5077675;28;20020;-76
2022/10/28 12:56:58;;;;;;;9.95;2.67;;;26.50;95.00;;;;;;5082236;28;20137;-76
2022/10/28 12:59:34;;;;;;;10.48;2.67;;;26.70;93.70;;;;;;5109078;28;20399;-76
2022/10/28 13:02:01;;;;;;;10.60;2.95;;;26.70;93.60;;;;;;5096699;28;20031;-75
2022/10/28 13:04:27;;;;;;;10.48;4.25;;;26.70;93.40;;;;;;5086578;28;20481;-76